createdAt,value
2019-03-29T00:02:21.415Z,9.50
2019-03-29T00:04:59.858Z,9.50
2019-03-29T00:07:38.957Z,9.50
2019-03-29T00:09:56.527Z,9.50
2019-03-29T00:12:22.581Z,9.40
2019-03-29T00:14:48.682Z,9.40
2019-03-29T00:17:18.143Z,9.40
2019-03-29T00:19:44.502Z,9.40
2019-03-29T00:22:10.610Z,9.40
2019-03-29T00:24:36.683Z,9.30
2019-03-29T00:27:02.769Z,9.30
2019-03-29T00:29:29.948Z,9.20
2019-03-29T00:31:56.274Z,9.20
2019-03-29T00:34:22.319Z,9.20
2019-03-29T00:36:48.352Z,9.20
2019-03-29T00:39:15.018Z,9.10
2019-03-29T00:41:41.368Z,9.10
2019-03-29T00:44:10.244Z,9.00
2019-03-29T00:46:36.276Z,9.00
2019-03-29T00:49:02.374Z,8.90
2019-03-29T00:51:28.485Z,8.90
2019-03-29T00:54:01.879Z,8.90
2019-03-29T00:56:28.182Z,8.80
2019-03-29T00:58:55.134Z,8.80
2019-03-29T01:01:21.277Z,8.80
2019-03-29T01:03:53.535Z,8.80
2019-03-29T01:06:19.579Z,8.80
2019-03-29T01:08:54.996Z,8.80
2019-03-29T01:11:21.053Z,8.70
2019-03-29T01:13:47.171Z,8.70
2019-03-29T01:16:16.042Z,8.60
2019-03-29T01:18:42.321Z,8.60
2019-03-29T01:21:08.504Z,8.60
2019-03-29T01:23:34.791Z,8.60
2019-03-29T01:26:16.371Z,8.50
2019-03-29T01:28:42.579Z,8.40
2019-03-29T01:31:08.846Z,8.40
2019-03-29T01:33:35.087Z,8.40
2019-03-29T01:36:02.041Z,8.30
2019-03-29T01:38:28.371Z,8.30
2019-03-29T01:40:54.735Z,8.30
2019-03-29T01:43:20.952Z,8.20
2019-03-29T01:45:47.125Z,8.20
2019-03-29T01:48:13.315Z,8.20
2019-03-29T01:50:39.530Z,8.10
2019-03-29T01:53:05.724Z,8.00
2019-03-29T01:55:31.940Z,8.00
2019-03-29T01:57:58.924Z,8.00
2019-03-29T02:00:30.280Z,7.90
2019-03-29T02:02:59.525Z,7.90
2019-03-29T02:05:25.830Z,7.80
2019-03-29T02:07:57.980Z,7.80
2019-03-29T02:10:24.162Z,7.80
2019-03-29T02:12:50.576Z,7.70
2019-03-29T02:15:16.810Z,7.70
2019-03-29T02:17:43.070Z,7.60
2019-03-29T02:20:09.469Z,7.60
2019-03-29T02:22:36.284Z,7.60
2019-03-29T02:25:05.036Z,7.50
2019-03-29T02:27:31.247Z,7.50
2019-03-29T02:29:57.423Z,7.50
2019-03-29T02:32:24.930Z,7.40
2019-03-29T02:34:53.825Z,7.40
2019-03-29T02:37:20.099Z,7.30
2019-03-29T02:39:46.290Z,7.30
2019-03-29T02:42:13.838Z,7.30
2019-03-29T02:44:40.660Z,7.30
2019-03-29T02:47:06.840Z,7.20
2019-03-29T02:49:33.057Z,7.20
2019-03-29T02:52:00.335Z,7.20
2019-03-29T02:54:26.541Z,7.10
2019-03-29T02:56:55.325Z,7.10
2019-03-29T02:59:21.531Z,7.00
2019-03-29T03:01:47.710Z,7.00
2019-03-29T03:04:13.963Z,7.00
2019-03-29T03:06:40.133Z,6.90
2019-03-29T03:09:13.677Z,6.90
2019-03-29T03:11:34.788Z,6.80
2019-03-29T03:14:01.006Z,6.80
2019-03-29T03:16:27.185Z,6.80
2019-03-29T03:18:53.464Z,6.80
2019-03-29T03:21:22.446Z,6.70
2019-03-29T03:23:48.725Z,6.70
2019-03-29T03:26:15.027Z,6.70
2019-03-29T03:28:41.274Z,6.70
2019-03-29T03:31:07.499Z,6.70
2019-03-29T03:33:33.684Z,6.60
2019-03-29T03:35:59.865Z,6.60
2019-03-29T03:38:26.037Z,6.60
2019-03-29T03:40:52.225Z,6.60
2019-03-29T03:43:18.418Z,6.60
2019-03-29T03:45:44.623Z,6.50
2019-03-29T03:48:11.101Z,6.50
2019-03-29T03:50:40.854Z,6.50
2019-03-29T03:53:08.003Z,6.50
2019-03-29T03:55:36.534Z,6.50
2019-03-29T03:58:11.955Z,6.40
2019-03-29T04:00:47.764Z,6.40
2019-03-29T04:03:14.027Z,6.40
2019-03-29T04:05:40.207Z,6.30
2019-03-29T04:08:06.391Z,6.30
2019-03-29T04:10:32.616Z,6.30
2019-03-29T04:12:58.835Z,6.30
2019-03-29T04:15:25.035Z,6.30
2019-03-29T04:17:51.216Z,6.20
2019-03-29T04:20:17.404Z,6.20
2019-03-29T04:22:43.627Z,6.20
2019-03-29T04:25:09.886Z,6.20
2019-03-29T04:27:36.108Z,6.20
2019-03-29T04:30:17.507Z,6.10
2019-03-29T04:32:46.215Z,6.10
2019-03-29T04:35:12.417Z,6.10
2019-03-29T04:37:38.587Z,6.10
2019-03-29T04:40:07.889Z,6.10
2019-03-29T04:42:51.392Z,6.00
2019-03-29T04:45:17.601Z,6.00
2019-03-29T04:47:43.755Z,6.00
2019-03-29T04:50:12.663Z,6.00
2019-03-29T04:52:38.825Z,6.00
2019-03-29T04:55:05.550Z,6.00
2019-03-29T04:57:31.740Z,5.90
2019-03-29T04:59:58.111Z,5.90
2019-03-29T05:02:24.294Z,5.90
2019-03-29T05:04:50.481Z,5.80
2019-03-29T05:07:16.702Z,5.80
2019-03-29T05:09:45.721Z,5.80
2019-03-29T05:12:11.971Z,5.80
2019-03-29T05:14:38.166Z,5.80
2019-03-29T05:17:04.367Z,5.70
2019-03-29T05:19:30.533Z,5.70
2019-03-29T05:21:59.556Z,5.70
2019-03-29T05:24:25.731Z,5.70
2019-03-29T05:26:51.910Z,5.70
2019-03-29T05:29:18.078Z,5.70
2019-03-29T05:31:44.284Z,5.70
2019-03-29T05:34:10.561Z,5.70
2019-03-29T05:36:36.794Z,5.70
2019-03-29T05:39:04.665Z,5.70
2019-03-29T05:41:49.436Z,5.70
2019-03-29T05:44:15.609Z,5.70
2019-03-29T05:46:41.801Z,5.70
2019-03-29T05:49:07.993Z,5.70
2019-03-29T05:51:34.163Z,5.70
2019-03-29T05:54:00.336Z,5.70
2019-03-29T05:56:26.554Z,5.70
2019-03-29T05:58:52.850Z,5.70
2019-03-29T06:01:31.459Z,5.70
2019-03-29T06:03:57.679Z,5.70
2019-03-29T06:06:23.915Z,5.80
2019-03-29T06:08:50.113Z,5.80
2019-03-29T06:11:16.335Z,5.80
2019-03-29T06:14:00.913Z,5.80
2019-03-29T06:16:38.274Z,5.90
2019-03-29T06:19:13.526Z,5.90
2019-03-29T06:21:39.922Z,5.90
2019-03-29T06:24:06.147Z,6.00
2019-03-29T06:26:32.359Z,6.00
2019-03-29T06:28:58.547Z,6.10
2019-03-29T06:31:24.768Z,6.10
2019-03-29T06:33:51.002Z,6.10
2019-03-29T06:36:18.726Z,6.20
2019-03-29T06:38:55.112Z,6.30
2019-03-29T06:41:21.374Z,6.30
2019-03-29T06:43:47.589Z,6.40
2019-03-29T06:46:13.772Z,6.40
2019-03-29T06:48:39.976Z,6.50
2019-03-29T06:51:06.291Z,6.60
2019-03-29T06:53:32.448Z,6.70
2019-03-29T06:55:59.452Z,6.70
2019-03-29T06:58:25.814Z,6.80
2019-03-29T07:00:51.991Z,6.90
2019-03-29T07:03:18.722Z,7.00
2019-03-29T07:05:47.496Z,7.10
2019-03-29T07:08:13.680Z,7.20
2019-03-29T07:10:39.829Z,7.30
2019-03-29T07:13:06.007Z,7.40
2019-03-29T07:15:32.281Z,7.50
2019-03-29T07:20:27.992Z,7.80
2019-03-29T07:22:54.179Z,7.90
2019-03-29T07:25:20.375Z,8.00
2019-03-29T07:27:52.004Z,8.10
2019-03-29T07:30:15.204Z,8.30
2019-03-29T07:32:41.398Z,8.40
2019-03-29T07:35:07.802Z,8.60
2019-03-29T07:37:33.965Z,8.70
2019-03-29T07:40:00.390Z,8.80
2019-03-29T07:42:39.165Z,9.00
2019-03-29T07:45:09.892Z,9.10
2019-03-29T07:47:53.089Z,9.10
2019-03-29T07:50:19.368Z,9.20
2019-03-29T07:52:45.649Z,9.30
2019-03-29T07:55:11.870Z,9.40
2019-03-29T07:57:38.063Z,9.50
2019-03-29T08:00:05.644Z,9.60
2019-03-29T08:02:50.136Z,9.70
2019-03-29T08:05:17.877Z,9.80
2019-03-29T08:07:47.060Z,9.90
2019-03-29T08:10:24.539Z,10.00
2019-03-29T08:12:44.334Z,10.00
2019-03-29T08:15:10.837Z,10.10
2019-03-29T08:17:39.798Z,10.20
2019-03-29T08:20:37.465Z,10.20
2019-03-29T08:22:53.470Z,10.30
2019-03-29T08:25:22.748Z,10.30
2019-03-29T08:28:04.263Z,10.40
2019-03-29T08:30:30.711Z,10.50
2019-03-29T08:32:57.047Z,10.60
2019-03-29T08:35:23.343Z,10.60
2019-03-29T08:37:49.538Z,10.70
2019-03-29T08:40:15.732Z,10.80
2019-03-29T08:42:42.485Z,10.90
2019-03-29T08:45:17.937Z,10.90
2019-03-29T08:47:44.287Z,11.00
2019-03-29T08:50:10.909Z,11.10
2019-03-29T08:52:37.262Z,11.10
2019-03-29T08:55:05.014Z,11.20
2019-03-29T08:57:31.235Z,11.30
2019-03-29T08:59:57.401Z,11.30
2019-03-29T09:02:25.285Z,11.40
2019-03-29T09:04:57.749Z,11.50
2019-03-29T09:07:24.239Z,11.50
2019-03-29T09:09:50.734Z,11.50
2019-03-29T09:12:19.791Z,11.60
2019-03-29T09:14:45.982Z,11.70
2019-03-29T09:17:12.221Z,11.80
2019-03-29T09:19:57.422Z,11.90
2019-03-29T09:22:42.569Z,12.00
2019-03-29T09:25:09.026Z,12.00
2019-03-29T09:27:53.898Z,12.10
2019-03-29T09:30:20.216Z,12.20
2019-03-29T09:33:05.201Z,12.20
2019-03-29T09:35:31.364Z,12.30
2019-03-29T09:37:57.660Z,12.40
2019-03-29T09:40:42.714Z,12.50
2019-03-29T09:43:09.021Z,12.60
2019-03-29T09:45:53.728Z,12.70
2019-03-29T09:48:35.223Z,12.90
2019-03-29T09:51:01.389Z,13.10
2019-03-29T09:53:27.663Z,13.40
2019-03-29T09:55:53.855Z,13.90
2019-03-29T09:58:20.072Z,15.40
2019-03-29T10:01:04.823Z,17.80
2019-03-29T10:03:31.091Z,20.40
2019-03-29T10:05:57.330Z,22.40
2019-03-29T10:08:26.115Z,23.70
2019-03-29T10:10:52.469Z,24.80
2019-03-29T10:13:18.757Z,25.80
2019-03-29T10:15:45.057Z,26.30
2019-03-29T10:18:13.835Z,26.80
2019-03-29T10:20:58.818Z,26.90
2019-03-29T10:23:27.643Z,26.10
2019-03-29T10:25:53.812Z,24.40
2019-03-29T10:28:20.512Z,22.70
2019-03-29T10:30:49.637Z,21.30
2019-03-29T10:33:15.881Z,20.10
2019-03-29T10:36:00.719Z,19.20
2019-03-29T10:38:26.932Z,18.30
2019-03-29T10:40:53.189Z,17.80
2019-03-29T10:43:19.395Z,17.50
2019-03-29T10:45:45.673Z,17.40
2019-03-29T10:48:11.887Z,17.40
2019-03-29T10:50:38.084Z,17.40
2019-03-29T10:53:04.308Z,17.60
2019-03-29T10:55:30.501Z,17.90
2019-03-29T10:57:56.683Z,18.50
2019-03-29T11:00:34.751Z,20.00
2019-03-29T11:03:00.988Z,22.50
2019-03-29T11:05:27.144Z,25.10
2019-03-29T11:07:53.330Z,27.20
2019-03-29T11:10:31.612Z,28.20
2019-03-29T11:13:11.768Z,28.60
2019-03-29T11:15:26.567Z,29.80
2019-03-29T11:17:55.614Z,30.70
2019-03-29T11:20:21.843Z,31.30
2019-03-29T11:22:48.114Z,31.20
2019-03-29T11:25:14.351Z,31.80
2019-03-29T11:27:40.526Z,32.20
2019-03-29T11:30:07.038Z,32.20
2019-03-29T11:32:33.646Z,31.20
2019-03-29T11:35:03.814Z,29.80
2019-03-29T11:37:48.529Z,28.70
2019-03-29T11:40:14.809Z,27.90
2019-03-29T11:42:41.005Z,27.60
2019-03-29T11:45:07.496Z,27.90
2019-03-29T11:47:52.014Z,29.00
2019-03-29T11:50:18.403Z,30.00
2019-03-29T11:52:44.735Z,30.40
2019-03-29T11:55:10.966Z,30.40
2019-03-29T11:57:40.133Z,29.80
2019-03-29T12:00:09.224Z,29.10
2019-03-29T12:02:35.380Z,28.40
2019-03-29T12:05:01.791Z,27.70
2019-03-29T12:07:28.066Z,26.60
2019-03-29T12:09:54.526Z,25.80
2019-03-29T12:12:39.224Z,25.00
2019-03-29T12:15:06.992Z,24.40
2019-03-29T12:17:33.232Z,24.10
2019-03-29T12:19:59.465Z,23.80
2019-03-29T12:22:25.871Z,23.50
2019-03-29T12:25:05.855Z,23.20
2019-03-29T12:27:34.585Z,22.90
2019-03-29T12:30:00.864Z,22.60
2019-03-29T12:32:27.402Z,22.40
2019-03-29T12:34:56.661Z,22.20
2019-03-29T12:37:25.626Z,22.00
2019-03-29T12:39:51.828Z,22.00
2019-03-29T12:42:18.050Z,22.00
2019-03-29T12:44:44.301Z,21.90
2019-03-29T12:47:10.479Z,21.60
2019-03-29T12:49:36.666Z,21.30
2019-03-29T12:52:02.871Z,21.30
2019-03-29T12:54:29.083Z,21.40
2019-03-29T12:56:55.439Z,21.70
2019-03-29T12:59:21.751Z,22.10
2019-03-29T13:01:48.243Z,22.40
2019-03-29T13:04:26.623Z,22.50
2019-03-29T13:06:52.800Z,22.60
2019-03-29T13:09:19.020Z,22.50
2019-03-29T13:11:45.233Z,22.60
2019-03-29T13:14:14.135Z,23.30
2019-03-29T13:16:40.372Z,24.30
2019-03-29T13:19:06.564Z,25.20
2019-03-29T13:21:32.961Z,25.70
2019-03-29T13:23:59.137Z,25.60
2019-03-29T13:26:25.488Z,26.00
2019-03-29T13:28:51.781Z,26.70
2019-03-29T13:31:20.658Z,27.20
2019-03-29T13:33:46.953Z,27.90
2019-03-29T13:36:13.211Z,28.50
2019-03-29T13:38:42.245Z,29.20
2019-03-29T13:41:08.535Z,29.90
2019-03-29T13:43:34.732Z,30.50
2019-03-29T13:46:19.462Z,30.40
2019-03-29T13:48:45.665Z,30.10
2019-03-29T13:51:11.853Z,29.80
2019-03-29T13:53:38.045Z,29.70
2019-03-29T13:56:04.432Z,29.90
2019-03-29T13:58:48.997Z,30.30
2019-03-29T14:01:15.441Z,29.90
2019-03-29T14:03:41.636Z,29.30
2019-03-29T14:06:07.822Z,29.00
2019-03-29T14:08:34.011Z,28.80
2019-03-29T14:11:00.190Z,28.60
2019-03-29T14:13:26.368Z,28.50
2019-03-29T14:15:52.569Z,28.20
2019-03-29T14:18:18.828Z,27.70
2019-03-29T14:20:45.154Z,27.10
2019-03-29T14:23:11.455Z,26.60
2019-03-29T14:25:37.681Z,26.00
2019-03-29T14:28:16.226Z,25.90
2019-03-29T14:30:42.455Z,26.50
2019-03-29T14:33:08.685Z,27.30
2019-03-29T14:35:34.970Z,27.80
2019-03-29T14:38:01.449Z,28.00
2019-03-29T14:40:27.616Z,28.20
2019-03-29T14:42:53.786Z,27.60
2019-03-29T14:45:19.970Z,27.30
2019-03-29T14:47:46.154Z,27.10
2019-03-29T14:50:13.031Z,26.80
2019-03-29T14:52:39.282Z,26.50
2019-03-29T14:55:05.753Z,26.20
2019-03-29T14:57:31.963Z,25.90
2019-03-29T14:59:58.249Z,25.60
2019-03-29T15:02:27.317Z,25.30
2019-03-29T15:04:53.498Z,24.90
2019-03-29T15:07:19.826Z,24.60
2019-03-29T15:09:46.739Z,24.30
2019-03-29T15:12:13.108Z,24.20
2019-03-29T15:14:39.276Z,23.90
2019-03-29T15:17:05.557Z,23.80
2019-03-29T15:19:31.744Z,23.60
2019-03-29T15:21:58.042Z,23.30
2019-03-29T15:24:24.210Z,22.90
2019-03-29T15:26:50.391Z,22.60
2019-03-29T15:29:16.836Z,22.40
2019-03-29T15:31:43.188Z,22.20
2019-03-29T15:34:12.099Z,22.00
2019-03-29T15:36:38.317Z,21.90
2019-03-29T15:39:05.332Z,21.80
2019-03-29T15:41:31.516Z,21.80
2019-03-29T15:43:57.700Z,21.60
2019-03-29T15:46:43.109Z,21.40
2019-03-29T15:49:28.071Z,21.30
2019-03-29T15:51:54.271Z,21.10
2019-03-29T15:54:20.699Z,20.90
2019-03-29T15:57:02.321Z,20.80
2019-03-29T15:59:28.816Z,20.70
2019-03-29T16:01:57.974Z,20.70
2019-03-29T16:04:26.821Z,20.60
2019-03-29T16:06:53.156Z,20.60
2019-03-29T16:09:19.619Z,20.50
2019-03-29T16:11:45.821Z,20.50
2019-03-29T16:14:12.021Z,20.40
2019-03-29T16:16:41.070Z,20.30
2019-03-29T16:19:07.231Z,20.30
2019-03-29T16:21:33.444Z,20.30
2019-03-29T16:23:59.632Z,20.20
2019-03-29T16:26:25.910Z,20.10
2019-03-29T16:28:52.100Z,20.10
2019-03-29T16:31:18.395Z,20.10
2019-03-29T16:33:44.805Z,20.00
2019-03-29T16:36:11.096Z,20.00
2019-03-29T16:38:39.955Z,19.90
2019-03-29T16:41:06.112Z,19.90
2019-03-29T16:43:32.434Z,19.80
2019-03-29T16:45:58.996Z,19.70
2019-03-29T16:48:25.199Z,19.70
2019-03-29T16:50:51.357Z,19.60
2019-03-29T16:53:17.663Z,19.50
2019-03-29T16:55:43.867Z,19.40
2019-03-29T16:58:10.070Z,19.30
2019-03-29T17:00:36.557Z,19.20
2019-03-29T17:03:02.981Z,19.10
2019-03-29T17:05:29.929Z,19.00
2019-03-29T17:07:56.136Z,18.90
2019-03-29T17:10:22.440Z,18.70
2019-03-29T17:12:51.921Z,18.60
2019-03-29T17:15:19.592Z,18.50
2019-03-29T17:17:45.831Z,18.40
2019-03-29T17:20:12.259Z,18.30
2019-03-29T17:22:44.865Z,18.20
2019-03-29T17:25:11.120Z,18.10
2019-03-29T17:27:56.087Z,18.00
2019-03-29T17:30:39.021Z,17.80
2019-03-29T17:33:05.223Z,17.70
2019-03-29T17:35:31.397Z,17.60
2019-03-29T17:37:57.624Z,17.50
2019-03-29T17:40:23.842Z,17.40
2019-03-29T17:42:52.609Z,17.30
2019-03-29T17:45:18.786Z,17.10
2019-03-29T17:47:45.024Z,17.00
2019-03-29T17:50:11.305Z,16.90
2019-03-29T17:52:37.482Z,16.80
2019-03-29T17:55:04.882Z,16.70
2019-03-29T17:57:49.746Z,16.60
2019-03-29T18:00:18.259Z,16.50
2019-03-29T18:02:47.147Z,16.40
2019-03-29T18:05:13.376Z,16.30
2019-03-29T18:07:39.573Z,16.20
2019-03-29T18:10:07.454Z,16.10
2019-03-29T18:12:33.637Z,16.00
2019-03-29T18:14:59.812Z,15.80
2019-03-29T18:17:25.991Z,15.70
2019-03-29T18:19:53.328Z,15.60
2019-03-29T18:22:19.499Z,15.50
2019-03-29T18:24:45.728Z,15.40
2019-03-29T18:27:11.902Z,15.30
2019-03-29T18:29:38.092Z,15.20
2019-03-29T18:32:04.264Z,15.10
2019-03-29T18:34:30.691Z,15.00
2019-03-29T18:36:57.368Z,14.90
2019-03-29T18:39:42.442Z,14.70
2019-03-29T18:42:11.366Z,14.60
2019-03-29T18:44:37.583Z,14.50
2019-03-29T18:47:03.796Z,14.40
2019-03-29T18:49:32.520Z,14.30
2019-03-29T18:51:58.694Z,14.20
2019-03-29T18:54:24.934Z,14.10
2019-03-29T18:56:51.113Z,14.10
2019-03-29T18:59:17.340Z,14.00
2019-03-29T19:01:43.604Z,13.90
2019-03-29T19:04:09.983Z,13.80
2019-03-29T19:06:36.166Z,13.70
2019-03-29T19:09:03.957Z,13.70
2019-03-29T19:11:30.164Z,13.60
2019-03-29T19:14:14.886Z,13.50
2019-03-29T19:16:41.068Z,13.40
2019-03-29T19:19:10.164Z,13.40
2019-03-29T19:21:35.362Z,13.30
2019-03-29T19:24:01.553Z,13.30
2019-03-29T19:26:30.583Z,13.20
2019-03-29T19:28:59.450Z,13.20
2019-03-29T19:31:25.616Z,13.10
2019-03-29T19:33:51.848Z,13.10
2019-03-29T19:36:20.991Z,13.00
2019-03-29T19:38:47.226Z,13.10
2019-03-29T19:41:13.395Z,13.00
2019-03-29T19:43:39.604Z,13.00
2019-03-29T19:46:05.885Z,12.90
2019-03-29T19:48:32.071Z,12.90
2019-03-29T19:50:58.271Z,12.80
2019-03-29T19:53:27.375Z,12.70
2019-03-29T19:56:08.997Z,12.70
2019-03-29T19:58:35.257Z,12.60
2019-03-29T20:01:01.532Z,12.60
2019-03-29T20:03:27.905Z,12.50
2019-03-29T20:05:54.180Z,12.50
2019-03-29T20:08:20.460Z,12.40
2019-03-29T20:10:46.847Z,12.40
2019-03-29T20:13:13.019Z,12.30
2019-03-29T20:15:39.425Z,12.30
2019-03-29T20:18:08.307Z,12.20
2019-03-29T20:20:34.642Z,12.20
2019-03-29T20:23:19.598Z,12.10
2019-03-29T20:25:45.845Z,12.10
2019-03-29T20:28:12.089Z,12.00
2019-03-29T20:30:40.999Z,11.90
2019-03-29T20:33:11.791Z,11.90
2019-03-29T20:35:37.925Z,11.80
2019-03-29T20:38:04.114Z,11.80
2019-03-29T20:40:32.065Z,11.70
2019-03-29T20:42:58.358Z,11.70
2019-03-29T20:45:24.573Z,11.60
2019-03-29T20:47:52.017Z,11.60
2019-03-29T20:50:21.015Z,11.50
2019-03-29T20:52:47.405Z,11.40
2019-03-29T20:55:16.219Z,11.40
2019-03-29T20:57:42.552Z,11.30
2019-03-29T21:00:10.436Z,11.30
2019-03-29T21:02:39.529Z,11.30
2019-03-29T21:05:09.072Z,11.30
2019-03-29T21:07:35.332Z,11.30
2019-03-29T21:10:03.261Z,11.20
2019-03-29T21:12:29.511Z,11.20
2019-03-29T21:14:55.791Z,11.10
2019-03-29T21:17:22.006Z,11.10
2019-03-29T21:19:51.128Z,11.10
2019-03-29T21:22:17.351Z,11.00
2019-03-29T21:24:46.237Z,11.00
2019-03-29T21:27:12.446Z,11.00
2019-03-29T21:29:38.680Z,11.00
2019-03-29T21:32:04.871Z,10.90
2019-03-29T21:34:31.077Z,10.80
2019-03-29T21:36:57.350Z,10.70
2019-03-29T21:39:26.320Z,10.70
2019-03-29T21:41:52.553Z,10.60
2019-03-29T21:44:18.803Z,10.60
2019-03-29T21:46:44.992Z,10.50
2019-03-29T21:49:11.316Z,10.60
2019-03-29T21:51:37.601Z,10.50
2019-03-29T21:54:03.751Z,10.50
2019-03-29T21:56:29.922Z,10.50
2019-03-29T21:58:56.096Z,10.50
2019-03-29T22:01:22.328Z,10.40
2019-03-29T22:03:51.080Z,10.40
2019-03-29T22:06:17.266Z,10.30
2019-03-29T22:08:43.652Z,10.30
2019-03-29T22:11:09.818Z,10.20
2019-03-29T22:13:36.032Z,10.20
2019-03-29T22:16:02.225Z,10.10
2019-03-29T22:18:37.860Z,10.10
2019-03-29T22:20:56.501Z,10.10
2019-03-29T22:23:23.104Z,10.00
2019-03-29T22:25:49.804Z,10.00
2019-03-29T22:28:34.424Z,9.90
2019-03-29T22:31:03.208Z,9.90
2019-03-29T22:33:29.343Z,9.90
2019-03-29T22:35:55.549Z,9.80
2019-03-29T22:38:21.736Z,9.80
2019-03-29T22:40:47.972Z,9.80
2019-03-29T22:43:14.175Z,9.80
2019-03-29T22:45:40.389Z,9.80
2019-03-29T22:48:06.766Z,9.70
2019-03-29T22:50:32.931Z,9.70
2019-03-29T22:52:59.099Z,9.70
2019-03-29T22:55:25.356Z,9.70
2019-03-29T22:57:51.535Z,9.70
2019-03-29T23:00:21.529Z,9.60
2019-03-29T23:03:03.638Z,9.60
2019-03-29T23:05:32.681Z,9.60
2019-03-29T23:07:58.859Z,9.50
2019-03-29T23:10:27.594Z,9.50
2019-03-29T23:12:53.760Z,9.50
2019-03-29T23:15:19.947Z,9.50
2019-03-29T23:17:46.100Z,9.40
2019-03-29T23:20:12.397Z,9.40
2019-03-29T23:22:38.620Z,9.40
2019-03-29T23:25:05.072Z,9.40
2019-03-29T23:27:31.286Z,9.30
2019-03-29T23:29:57.486Z,9.30
2019-03-29T23:32:26.300Z,9.30
2019-03-29T23:34:52.574Z,9.30
2019-03-29T23:37:21.735Z,9.20
2019-03-29T23:39:47.917Z,9.20
2019-03-29T23:42:16.865Z,9.20
2019-03-29T23:44:43.023Z,9.20
2019-03-29T23:47:09.213Z,9.20
2019-03-29T23:49:37.991Z,9.10
2019-03-29T23:52:04.152Z,9.10
2019-03-29T23:54:30.314Z,9.10
2019-03-29T23:56:56.613Z,9.10
2019-03-29T23:59:22.749Z,9.10
